Time;durP1;ratioP1;P1;durP2;ratioP2;P2;SDS_P1;SDS_P2;PMS_P1;PMS_P2;Temp;Humidity;BMP_temperature;BMP_pressure;BME280_temperature;BME280_humidity;BME280_pressure;Samples;Min_cycle;Max_cycle;Signal;HPM_P1;HPM_P2
2022/04/05 00:00:33;;;;;;;6.47;2.33;;;6.30;99.90;;;;;;5044484;28;21405;-77
2022/04/05 00:02:59;;;;;;;4.72;2.65;;;6.30;99.90;;;;;;5037589;28;20038;-77
2022/04/05 00:05:25;;;;;;;9.43;3.83;;;6.30;99.90;;;;;;5030779;28;20068;-77
2022/04/05 00:07:51;;;;;;;7.65;2.60;;;6.30;99.90;;;;;;5038551;28;20056;-77
2022/04/05 00:10:17;;;;;;;7.13;2.58;;;6.30;99.90;;;;;;5038934;28;20045;-77
2022/04/05 00:12:43;;;;;;;9.40;3.13;;;6.30;99.90;;;;;;5048608;28;20464;-77
2022/04/05 00:15:10;;;;;;;6.90;2.65;;;6.20;99.90;;;;;;5047655;28;20483;-77
2022/04/05 00:17:36;;;;;;;4.10;2.50;;;6.30;99.90;;;;;;5046771;28;20092;-77
2022/04/05 00:20:04;;;;;;;9.30;2.90;;;6.30;99.90;;;;;;5047325;28;20338;-77
2022/04/05 00:22:30;;;;;;;10.68;2.42;;;6.20;99.90;;;;;;5046515;28;20112;-77
2022/04/05 00:24:56;;;;;;;4.97;2.70;;;6.20;99.90;;;;;;5043711;28;20044;-77
2022/04/05 00:27:21;;;;;;;6.88;2.90;;;6.20;99.90;;;;;;5046455;28;20049;-77
2022/04/05 00:29:47;;;;;;;7.00;2.90;;;6.20;99.90;;;;;;5046890;28;20064;-77
2022/04/05 00:32:13;;;;;;;12.88;3.60;;;6.20;99.90;;;;;;5042850;28;20127;-78
2022/04/05 00:34:39;;;;;;;10.32;3.05;;;6.20;99.90;;;;;;5049506;28;20090;-77
2022/04/05 00:37:05;;;;;;;14.02;2.60;;;6.20;99.90;;;;;;5048465;28;20060;-78
2022/04/05 00:39:31;;;;;;;8.60;3.00;;;6.20;99.90;;;;;;5045871;28;20036;-77
2022/04/05 00:41:57;;;;;;;6.80;2.55;;;6.10;99.90;;;;;;5046642;28;20029;-77
2022/04/05 00:44:24;;;;;;;8.52;3.03;;;6.10;99.90;;;;;;5047661;28;20127;-77
2022/04/05 00:46:52;;;;;;;8.38;2.70;;;6.10;99.90;;;;;;5044379;28;20033;-77
2022/04/05 00:49:29;;;;;;;9.02;2.60;;;6.10;99.90;;;;;;5046799;28;20044;-76
2022/04/05 00:51:55;;;;;;;8.98;2.78;;;6.10;99.90;;;;;;5039358;28;20525;-77
2022/04/05 00:54:24;;;;;;;4.05;2.53;;;6.10;99.90;;;;;;5047124;28;20045;-77
2022/04/05 00:56:52;;;;;;;9.48;2.22;;;6.10;99.90;;;;;;5029063;28;20045;-77
2022/04/05 00:59:19;;;;;;;9.43;2.65;;;6.10;99.90;;;;;;5013499;28;20135;-77
2022/04/05 01:01:46;;;;;;;7.03;2.35;;;6.10;99.90;;;;;;5030832;28;20056;-77
2022/04/05 01:04:13;;;;;;;4.95;2.40;;;6.10;99.90;;;;;;5030819;28;20041;-77
2022/04/05 01:06:39;;;;;;;5.03;2.08;;;6.00;99.90;;;;;;5035632;28;20052;-77
2022/04/05 01:09:09;;;;;;;6.70;2.50;;;6.00;99.90;;;;;;5047634;28;20414;-77
2022/04/05 01:11:35;;;;;;;6.05;2.05;;;6.00;99.90;;;;;;5036593;28;20434;-77
2022/04/05 01:14:01;;;;;;;8.35;2.47;;;6.00;99.90;;;;;;5030294;28;20037;-77
2022/04/05 01:16:27;;;;;;;4.20;2.30;;;6.00;99.90;;;;;;5031705;28;20063;-77
2022/04/05 01:18:53;;;;;;;5.30;1.88;;;6.00;99.90;;;;;;5040132;28;20060;-77
2022/04/05 01:21:19;;;;;;;5.40;1.80;;;5.90;99.90;;;;;;5041003;28;20494;-77
2022/04/05 01:24:11;;;;;;;6.47;1.92;;;5.90;99.90;;;;;;5045152;28;20040;-77
2022/04/05 01:26:45;;;;;;;8.27;2.07;;;5.90;99.90;;;;;;5043623;28;20052;-77
2022/04/05 01:29:12;;;;;;;4.85;1.80;;;5.90;99.90;;;;;;5044208;28;20120;-77
2022/04/05 01:31:40;;;;;;;4.43;1.88;;;5.80;99.90;;;;;;5046147;28;20113;-77
2022/04/05 01:34:07;;;;;;;8.43;2.05;;;5.80;99.90;;;;;;5047487;28;20063;-77
2022/04/05 01:36:33;;;;;;;4.45;2.00;;;5.80;99.90;;;;;;5043518;28;20553;-77
2022/04/05 01:38:59;;;;;;;7.15;2.08;;;5.80;99.90;;;;;;5022619;28;20485;-76
2022/04/05 01:41:25;;;;;;;4.70;1.88;;;5.80;99.90;;;;;;5043346;28;20108;-76
2022/04/05 01:43:50;;;;;;;6.85;2.10;;;5.80;99.90;;;;;;5042893;28;20128;-76
2022/04/05 01:46:16;;;;;;;10.70;2.45;;;5.80;99.90;;;;;;5041681;28;20037;-76
2022/04/05 01:48:42;;;;;;;7.53;2.30;;;5.70;99.90;;;;;;5035808;28;20080;-76
2022/04/05 01:51:07;;;;;;;5.10;1.80;;;5.70;99.90;;;;;;5046535;28;20052;-76
2022/04/05 01:53:33;;;;;;;6.55;1.65;;;5.80;99.90;;;;;;5038485;28;20082;-76
2022/04/05 01:55:59;;;;;;;9.48;2.10;;;5.70;99.90;;;;;;5041705;28;20111;-76
2022/04/05 01:58:25;;;;;;;7.15;2.40;;;5.70;99.90;;;;;;5043908;28;20513;-76
2022/04/05 02:00:51;;;;;;;6.97;4.13;;;5.70;99.90;;;;;;5042570;28;20068;-76
2022/04/05 02:03:18;;;;;;;3.85;2.20;;;5.70;99.90;;;;;;5039715;28;20559;-76
2022/04/05 02:05:46;;;;;;;3.35;1.75;;;5.70;99.90;;;;;;5016961;28;20042;-77
2022/04/05 02:08:13;;;;;;;4.30;2.00;;;5.70;99.90;;;;;;5018960;28;20037;-77
2022/04/05 02:10:38;;;;;;;9.57;2.70;;;5.70;99.90;;;;;;5041192;28;20048;-76
2022/04/05 02:13:04;;;;;;;7.15;1.83;;;5.60;99.90;;;;;;5030681;28;20041;-77
2022/04/05 02:15:31;;;;;;;6.90;1.98;;;5.60;99.90;;;;;;5036006;28;20124;-77
2022/04/05 02:17:57;;;;;;;8.65;2.10;;;5.60;99.90;;;;;;5032780;28;20041;-77
2022/04/05 02:20:23;;;;;;;8.93;2.08;;;5.60;99.90;;;;;;5039313;28;20479;-77
2022/04/05 02:22:49;;;;;;;5.45;2.05;;;5.60;99.90;;;;;;5044918;28;20075;-77
2022/04/05 02:25:15;;;;;;;6.93;2.10;;;5.60;99.90;;;;;;5026757;28;20079;-77
2022/04/05 02:27:41;;;;;;;6.53;1.95;;;5.70;99.90;;;;;;5044605;28;20528;-76
2022/04/05 02:30:07;;;;;;;8.20;2.33;;;5.60;99.90;;;;;;5044574;28;20072;-77
2022/04/05 02:32:33;;;;;;;8.80;2.45;;;5.60;99.90;;;;;;5025058;28;20703;-77
2022/04/05 02:34:58;;;;;;;8.38;2.00;;;5.60;99.90;;;;;;5046589;28;20040;-77
2022/04/05 02:37:24;;;;;;;12.77;2.35;;;5.60;99.90;;;;;;5043179;28;20046;-77
2022/04/05 02:39:50;;;;;;;6.00;2.20;;;5.60;99.90;;;;;;5043525;28;20048;-77
2022/04/05 02:42:15;;;;;;;4.40;2.08;;;5.60;99.90;;;;;;5039355;28;20394;-76
2022/04/05 02:44:42;;;;;;;6.47;2.22;;;5.60;99.90;;;;;;5041843;28;20029;-76
2022/04/05 02:47:09;;;;;;;6.47;2.10;;;5.60;99.90;;;;;;5046647;28;20045;-76
2022/04/05 02:49:34;;;;;;;6.30;2.05;;;5.70;99.90;;;;;;5037712;28;20072;-76
2022/04/05 02:52:00;;;;;;;4.95;1.95;;;5.60;99.90;;;;;;5025459;28;20126;-76
2022/04/05 02:54:26;;;;;;;6.75;2.22;;;5.70;99.90;;;;;;5039740;28;20045;-76
2022/04/05 02:56:52;;;;;;;9.80;1.90;;;5.70;99.90;;;;;;5042888;28;20045;-76
2022/04/05 02:59:18;;;;;;;9.50;2.42;;;5.70;99.90;;;;;;5045171;28;20048;-77
2022/04/05 03:01:43;;;;;;;6.30;2.17;;;5.60;99.90;;;;;;5045150;28;20037;-76
2022/04/05 03:04:09;;;;;;;11.68;2.50;;;5.60;99.90;;;;;;5023734;28;20056;-76
2022/04/05 03:06:35;;;;;;;7.75;2.30;;;5.70;99.90;;;;;;5040919;28;20060;-77
2022/04/05 03:09:00;;;;;;;7.88;2.42;;;5.70;99.90;;;;;;5037411;28;20037;-76
2022/04/05 03:11:26;;;;;;;8.75;2.83;;;5.70;99.90;;;;;;5041976;28;20033;-76
2022/04/05 03:13:52;;;;;;;7.75;2.25;;;5.70;99.90;;;;;;5042482;28;20146;-76
2022/04/05 03:16:18;;;;;;;8.27;2.83;;;5.70;99.90;;;;;;5047578;28;20150;-76
2022/04/05 03:18:46;;;;;;;7.43;2.95;;;5.70;99.90;;;;;;5027809;28;20044;-76
2022/04/05 03:21:13;;;;;;;5.80;2.90;;;5.70;99.90;;;;;;5046878;28;20045;-76
2022/04/05 03:23:39;;;;;;;10.57;3.47;;;5.70;99.90;;;;;;5045777;28;20029;-76
2022/04/05 03:26:05;;;;;;;12.50;3.20;;;5.70;99.90;;;;;;5046517;28;20137;-76
2022/04/05 03:28:31;;;;;;;7.30;2.80;;;5.70;99.90;;;;;;5048750;28;20113;-76
2022/04/05 03:30:57;;;;;;;8.43;2.75;;;5.70;99.90;;;;;;5043546;28;20184;-76
2022/04/05 03:33:22;;;;;;;7.90;3.00;;;5.80;99.90;;;;;;5047673;28;20045;-76
2022/04/05 03:35:49;;;;;;;7.00;2.92;;;5.70;99.90;;;;;;5028722;28;20130;-76
2022/04/05 03:38:15;;;;;;;6.13;3.13;;;5.70;99.90;;;;;;5044339;28;20103;-77
2022/04/05 03:40:41;;;;;;;8.05;2.97;;;5.70;99.90;;;;;;5045228;28;20717;-76
2022/04/05 03:43:11;;;;;;;9.30;2.95;;;5.70;99.90;;;;;;5055678;28;20541;-76
2022/04/05 03:45:36;;;;;;;8.65;2.47;;;5.70;99.90;;;;;;5041842;28;20307;-76
2022/04/05 03:48:02;;;;;;;11.07;2.50;;;5.70;99.90;;;;;;5047176;28;20494;-76
2022/04/05 03:50:28;;;;;;;6.47;2.53;;;5.70;99.90;;;;;;5049199;28;20060;-76
2022/04/05 03:52:54;;;;;;;9.05;2.67;;;5.70;99.90;;;;;;5048692;28;20048;-76
2022/04/05 03:55:20;;;;;;;5.93;2.70;;;5.70;99.90;;;;;;5047099;28;20402;-76
2022/04/05 03:57:46;;;;;;;8.73;2.70;;;5.70;99.90;;;;;;5048853;28;20049;-76
2022/04/05 04:00:12;;;;;;;8.50;2.42;;;5.70;99.90;;;;;;5050312;28;20041;-76
2022/04/05 04:02:38;;;;;;;9.52;3.30;;;5.70;99.90;;;;;;5042198;28;20629;-76
2022/04/05 04:05:04;;;;;;;10.82;2.90;;;5.60;99.90;;;;;;5046436;28;20128;-76
2022/04/05 04:07:29;;;;;;;8.57;2.90;;;5.60;99.90;;;;;;5049438;28;20352;-76
2022/04/05 04:10:01;;;;;;;5.63;2.30;;;5.70;99.90;;;;;;5048429;28;20409;-76
2022/04/05 04:12:27;;;;;;;7.00;3.10;;;5.70;99.90;;;;;;5043422;28;20112;-76
2022/04/05 04:14:52;;;;;;;14.18;3.13;;;5.70;99.90;;;;;;5027343;28;20120;-76
2022/04/05 04:17:18;;;;;;;13.40;2.70;;;5.70;99.90;;;;;;5046817;28;20094;-76
2022/04/05 04:19:44;;;;;;;7.18;2.60;;;5.70;99.90;;;;;;5045660;28;20392;-77
2022/04/05 04:22:10;;;;;;;6.90;3.05;;;5.70;99.90;;;;;;5046513;28;20067;-76
2022/04/05 04:24:36;;;;;;;11.05;3.25;;;5.70;99.90;;;;;;5044614;28;20498;-76
2022/04/05 04:27:02;;;;;;;7.28;3.03;;;5.70;99.90;;;;;;5047628;28;20044;-76
2022/04/05 04:29:27;;;;;;;8.55;3.15;;;5.70;99.90;;;;;;5044106;28;20080;-76
2022/04/05 04:31:53;;;;;;;8.55;3.00;;;5.60;99.90;;;;;;5040983;28;20073;-76
2022/04/05 04:34:19;;;;;;;7.38;2.72;;;5.70;99.90;;;;;;5043585;28;20509;-76
2022/04/05 04:36:45;;;;;;;11.85;3.15;;;5.70;99.90;;;;;;5029940;28;20045;-76
2022/04/05 04:39:12;;;;;;;8.70;3.30;;;5.70;99.90;;;;;;5042968;28;20113;-76
2022/04/05 04:41:37;;;;;;;6.53;3.00;;;5.70;99.90;;;;;;5043499;28;20116;-76
2022/04/05 04:44:03;;;;;;;7.55;3.53;;;5.70;99.90;;;;;;5035193;28;20469;-76
2022/04/05 04:46:29;;;;;;;12.00;3.30;;;5.70;99.90;;;;;;5046054;28;20036;-76
2022/04/05 04:48:55;;;;;;;11.48;3.22;;;5.70;99.90;;;;;;5043787;28;20098;-76
2022/04/05 04:51:20;;;;;;;6.57;2.80;;;5.70;99.90;;;;;;5043139;28;20477;-76
2022/04/05 04:53:46;;;;;;;10.23;3.47;;;5.70;99.90;;;;;;5048147;28;20036;-76
2022/04/05 04:56:12;;;;;;;9.10;3.00;;;5.70;99.90;;;;;;5046587;28;20045;-76
2022/04/05 04:58:38;;;;;;;12.05;3.28;;;5.70;99.90;;;;;;5044604;28;20406;-76
2022/04/05 05:01:04;;;;;;;10.60;3.67;;;5.70;99.90;;;;;;5046081;28;20631;-77
2022/04/05 05:03:29;;;;;;;11.93;3.42;;;5.70;99.90;;;;;;5037355;28;20526;-76
2022/04/05 05:05:55;;;;;;;9.30;3.65;;;5.70;99.90;;;;;;5046644;28;20536;-76
2022/04/05 05:08:21;;;;;;;12.25;3.33;;;5.70;99.90;;;;;;5031311;28;20075;-76
2022/04/05 05:10:47;;;;;;;9.73;3.92;;;5.70;99.90;;;;;;5046610;28;20390;-76
2022/04/05 05:13:13;;;;;;;14.52;3.60;;;5.70;99.90;;;;;;5034819;28;20091;-76
2022/04/05 05:15:38;;;;;;;8.95;3.22;;;5.70;99.90;;;;;;5026516;28;20033;-76
2022/04/05 05:18:04;;;;;;;11.52;3.88;;;5.70;99.90;;;;;;5040711;28;20051;-76
2022/04/05 05:20:30;;;;;;;7.97;3.33;;;5.70;99.90;;;;;;5037465;28;20037;-76
2022/04/05 05:22:56;;;;;;;8.02;3.88;;;5.70;99.90;;;;;;5047966;28;20244;-76
2022/04/05 05:25:21;;;;;;;10.70;3.72;;;5.70;99.90;;;;;;5043444;28;20060;-76
2022/04/05 05:27:47;;;;;;;13.13;3.92;;;5.70;99.90;;;;;;5040039;28;20090;-76
2022/04/05 05:30:13;;;;;;;18.00;4.15;;;5.70;99.90;;;;;;5043707;28;20483;-76
2022/04/05 05:32:47;;;;;;;12.70;4.28;;;5.70;99.90;;;;;;5046156;28;20051;-76
2022/04/05 05:35:17;;;;;;;13.82;4.40;;;5.70;99.90;;;;;;5040188;28;20037;-76
2022/04/05 05:37:44;;;;;;;12.52;4.68;;;5.70;99.90;;;;;;5041724;28;20506;-76
2022/04/05 05:40:10;;;;;;;10.05;4.68;;;5.70;99.90;;;;;;5041215;28;20059;-75
2022/04/05 05:42:55;;;;;;;10.93;4.25;;;5.70;99.90;;;;;;5044942;28;20044;-76
2022/04/05 05:45:21;;;;;;;15.43;4.60;;;5.80;99.90;;;;;;5043586;28;20055;-75
2022/04/05 05:47:48;;;;;;;18.60;5.18;;;5.80;99.90;;;;;;5041766;28;20087;-76
2022/04/05 05:50:14;;;;;;;14.48;4.97;;;5.80;99.90;;;;;;5041982;28;20062;-75
2022/04/05 05:52:44;;;;;;;12.15;4.78;;;5.80;99.90;;;;;;5041851;28;20382;-76
2022/04/05 05:55:12;;;;;;;14.02;4.45;;;5.90;99.90;;;;;;5045524;28;20032;-75
2022/04/05 05:57:38;;;;;;;10.82;4.70;;;5.90;99.90;;;;;;5036239;28;20544;-75
2022/04/05 06:00:21;;;;;;;10.93;4.60;;;5.90;99.90;;;;;;5045568;28;20681;-76
2022/04/05 06:02:48;;;;;;;9.27;4.45;;;5.90;99.90;;;;;;5043296;28;20041;-75
2022/04/05 06:05:14;;;;;;;10.75;5.05;;;6.00;99.90;;;;;;5041611;28;20040;-75
2022/04/05 06:07:41;;;;;;;9.95;4.43;;;6.00;99.90;;;;;;5047598;28;20520;-76
2022/04/05 06:10:08;;;;;;;10.32;4.60;;;6.00;99.90;;;;;;5038434;28;20052;-75
2022/04/05 06:12:40;;;;;;;11.65;4.70;;;6.00;99.90;;;;;;5040378;28;20095;-75
2022/04/05 06:15:09;;;;;;;8.13;4.53;;;6.00;99.90;;;;;;5039896;28;20037;-75
2022/04/05 06:17:40;;;;;;;13.35;4.35;;;6.00;99.90;;;;;;5045739;28;20037;-76
2022/04/05 06:20:07;;;;;;;8.15;4.03;;;6.10;99.90;;;;;;5044222;28;20051;-75
2022/04/05 06:22:52;;;;;;;12.45;4.15;;;6.10;99.90;;;;;;5045536;28;20033;-75
2022/04/05 06:25:21;;;;;;;8.88;4.47;;;6.10;99.90;;;;;;5041516;28;20167;-75
2022/04/05 06:27:47;;;;;;;8.73;4.45;;;6.10;99.90;;;;;;5046473;28;20435;-75
2022/04/05 06:30:14;;;;;;;14.57;4.55;;;6.10;99.90;;;;;;5035173;28;20503;-75
2022/04/05 06:32:41;;;;;;;7.43;3.60;;;6.20;99.90;;;;;;5029101;28;20033;-75
2022/04/05 06:35:08;;;;;;;11.57;4.88;;;6.20;99.90;;;;;;5028324;28;20045;-75
2022/04/05 06:37:35;;;;;;;9.27;4.05;;;6.20;99.90;;;;;;5029491;28;20033;-75
2022/04/05 06:40:05;;;;;;;10.02;3.78;;;6.10;99.90;;;;;;5029483;28;20499;-75
2022/04/05 06:42:32;;;;;;;8.73;4.03;;;6.20;99.90;;;;;;5029598;28;20042;-75
2022/04/05 06:44:58;;;;;;;13.85;3.72;;;6.20;99.90;;;;;;5028995;28;20167;-75
2022/04/05 06:47:23;;;;;;;12.25;3.45;;;6.20;99.90;;;;;;5030725;28;20578;-76
2022/04/05 06:49:49;;;;;;;11.05;3.42;;;6.20;99.90;;;;;;5043846;28;20029;-75
2022/04/05 06:52:15;;;;;;;7.75;3.17;;;6.20;99.90;;;;;;5058761;28;20029;-75
2022/04/05 06:54:41;;;;;;;10.13;3.38;;;6.20;99.90;;;;;;5059396;28;20020;-75
2022/04/05 06:57:07;;;;;;;5.97;3.67;;;6.20;99.90;;;;;;5053356;28;20034;-75
2022/04/05 06:59:33;;;;;;;8.63;3.13;;;6.30;99.90;;;;;;5031785;28;20129;-75
2022/04/05 07:01:58;;;;;;;10.32;3.00;;;6.30;99.90;;;;;;5015022;28;20049;-75
2022/04/05 07:04:24;;;;;;;10.55;3.20;;;6.30;99.90;;;;;;5033242;28;20122;-75
2022/04/05 07:06:50;;;;;;;6.55;2.83;;;6.30;99.90;;;;;;5015146;28;20083;-76
2022/04/05 07:09:16;;;;;;;10.55;3.08;;;6.40;99.90;;;;;;5033535;28;20041;-76
2022/04/05 07:11:42;;;;;;;8.45;3.30;;;6.40;99.90;;;;;;5033291;28;20042;-76
2022/04/05 07:14:08;;;;;;;6.75;2.70;;;6.40;99.90;;;;;;5031601;28;20491;-76
2022/04/05 07:16:33;;;;;;;5.55;2.22;;;6.50;99.90;;;;;;5032807;28;20041;-76
2022/04/05 07:18:59;;;;;;;10.23;2.70;;;6.50;99.90;;;;;;5032524;28;20545;-76
2022/04/05 07:21:25;;;;;;;9.23;3.00;;;6.50;99.90;;;;;;5033317;28;20037;-76
2022/04/05 07:23:50;;;;;;;5.35;2.10;;;6.50;99.90;;;;;;5031421;28;20300;-76
2022/04/05 07:26:16;;;;;;;7.68;2.00;;;6.60;99.90;;;;;;5033437;28;20037;-76
2022/04/05 07:28:42;;;;;;;5.70;2.08;;;6.60;99.90;;;;;;5042927;28;20037;-76
2022/04/05 07:31:08;;;;;;;8.10;2.65;;;6.60;99.90;;;;;;5045809;28;20140;-76
2022/04/05 07:33:33;;;;;;;5.90;2.00;;;6.60;99.90;;;;;;5031068;28;20041;-76
2022/04/05 07:35:59;;;;;;;5.80;2.60;;;6.60;99.90;;;;;;5039149;28;20122;-76
2022/04/05 07:38:25;;;;;;;7.15;2.35;;;6.70;99.90;;;;;;5046177;28;20918;-76
2022/04/05 07:40:52;;;;;;;5.60;2.40;;;6.70;99.90;;;;;;5047898;28;20033;-76
2022/04/05 07:43:26;;;;;;;5.05;2.00;;;6.80;99.90;;;;;;5044072;28;20033;-76
2022/04/05 07:45:52;;;;;;;7.57;2.38;;;6.80;99.90;;;;;;5041296;28;20080;-76
2022/04/05 07:48:20;;;;;;;5.38;2.33;;;6.80;99.90;;;;;;5044105;28;20048;-76
2022/04/05 07:50:47;;;;;;;5.53;2.40;;;6.80;99.90;;;;;;5048863;28;20399;-76
2022/04/05 07:53:13;;;;;;;7.53;2.33;;;6.80;99.90;;;;;;5048100;28;20041;-76
2022/04/05 07:55:39;;;;;;;5.43;2.13;;;6.80;99.90;;;;;;5046279;28;20072;-76
2022/04/05 07:58:05;;;;;;;2.20;1.77;;;6.90;99.90;;;;;;5036078;28;20209;-76
2022/04/05 08:00:31;;;;;;;4.45;1.80;;;7.00;99.90;;;;;;5039039;28;20033;-76
2022/04/05 08:02:57;;;;;;;3.30;1.85;;;7.10;99.90;;;;;;5042667;28;20043;-76
2022/04/05 08:05:27;;;;;;;2.60;1.58;;;7.00;99.90;;;;;;5047405;28;20037;-76
2022/04/05 08:07:53;;;;;;;6.07;2.25;;;7.10;99.90;;;;;;5042986;28;20078;-76
2022/04/05 08:10:19;;;;;;;4.10;1.83;;;7.10;99.90;;;;;;5047559;28;20048;-76
2022/04/05 08:12:47;;;;;;;7.70;2.40;;;7.00;99.90;;;;;;5043907;28;20072;-76
2022/04/05 08:15:21;;;;;;;2.70;1.80;;;6.90;99.90;;;;;;5047865;28;20502;-76
2022/04/05 08:17:48;;;;;;;2.47;1.80;;;6.90;99.90;;;;;;5047055;28;20521;-76
2022/04/05 08:20:14;;;;;;;2.45;1.75;;;6.90;99.90;;;;;;5028994;28;20508;-76
2022/04/05 08:22:41;;;;;;;5.25;1.98;;;6.90;99.90;;;;;;5032171;28;20042;-75
2022/04/05 08:25:08;;;;;;;4.75;1.90;;;6.90;99.90;;;;;;5036402;28;20583;-76
2022/04/05 08:27:34;;;;;;;4.00;1.80;;;6.80;99.90;;;;;;5026714;28;20046;-76
2022/04/05 08:30:01;;;;;;;5.78;2.00;;;6.80;99.90;;;;;;5027843;28;20038;-76
2022/04/05 08:32:27;;;;;;;4.18;2.17;;;6.90;99.90;;;;;;5044077;28;20091;-76
2022/04/05 08:34:53;;;;;;;6.65;1.83;;;6.90;99.90;;;;;;5027559;28;20376;-76
2022/04/05 08:37:19;;;;;;;5.10;1.67;;;7.00;99.90;;;;;;5033951;28;20117;-76
2022/04/05 08:39:44;;;;;;;5.07;1.70;;;7.00;99.90;;;;;;5030336;28;20029;-76
2022/04/05 08:42:12;;;;;;;4.38;1.90;;;7.00;99.90;;;;;;5026382;28;20479;-76
2022/04/05 08:44:38;;;;;;;3.63;1.98;;;7.10;99.90;;;;;;5031637;28;20034;-76
2022/04/05 08:47:04;;;;;;;3.40;1.55;;;7.20;99.90;;;;;;5030403;28;20041;-76
2022/04/05 08:49:31;;;;;;;5.05;1.90;;;7.30;99.90;;;;;;5031040;28;20064;-76
2022/04/05 08:51:57;;;;;;;4.68;1.35;;;7.40;99.90;;;;;;5031449;28;20061;-76
2022/04/05 08:54:23;;;;;;;4.95;1.98;;;7.40;99.90;;;;;;5031054;28;20071;-76
2022/04/05 08:56:50;;;;;;;10.55;2.13;;;7.40;99.90;;;;;;5031055;28;20179;-76
2022/04/05 08:59:16;;;;;;;4.03;1.63;;;7.40;99.90;;;;;;5031109;28;20029;-76
2022/04/05 09:01:43;;;;;;;6.13;2.20;;;7.40;99.90;;;;;;4996633;28;20430;-76
2022/04/05 09:04:10;;;;;;;4.00;1.80;;;7.50;99.90;;;;;;5030885;28;20123;-76
2022/04/05 09:06:36;;;;;;;5.32;2.35;;;7.50;99.90;;;;;;5005144;28;20037;-76
2022/04/05 09:09:09;;;;;;;6.07;1.95;;;7.40;99.90;;;;;;5030771;28;20038;-76
2022/04/05 09:11:36;;;;;;;4.25;1.60;;;7.50;99.90;;;;;;5067426;28;20498;-76
2022/04/05 09:14:03;;;;;;;5.38;1.85;;;7.40;99.90;;;;;;5045242;28;20108;-76
2022/04/05 09:16:31;;;;;;;9.13;2.22;;;7.40;99.90;;;;;;5035365;28;20045;-76
2022/04/05 09:18:59;;;;;;;7.60;2.78;;;7.50;99.90;;;;;;5029638;28;20045;-76
2022/04/05 09:21:25;;;;;;;3.67;2.33;;;7.60;99.90;;;;;;5030827;28;20407;-76
2022/04/05 09:24:05;;;;;;;6.43;2.38;;;7.60;99.90;;;;;;5013270;28;20040;-76
2022/04/05 09:26:42;;;;;;;6.18;2.25;;;7.60;99.90;;;;;;5026115;28;20072;-76
2022/04/05 09:29:08;;;;;;;3.42;2.05;;;7.60;99.90;;;;;;5026855;28;20148;-75
2022/04/05 09:31:44;;;;;;;3.03;2.00;;;7.60;99.90;;;;;;5036565;28;20073;-76
2022/04/05 09:34:12;;;;;;;6.25;2.40;;;7.50;99.90;;;;;;5036431;28;20033;-76
2022/04/05 09:36:46;;;;;;;5.63;2.60;;;7.60;99.90;;;;;;5044866;28;20402;-76
2022/04/05 09:39:22;;;;;;;4.53;2.00;;;7.60;99.90;;;;;;5040962;28;20037;-76
2022/04/05 09:42:08;;;;;;;4.03;2.38;;;7.60;99.90;;;;;;5007154;28;20068;-76
2022/04/05 09:44:39;;;;;;;7.10;2.22;;;7.60;99.90;;;;;;5022945;28;20041;-76
2022/04/05 09:47:08;;;;;;;4.13;2.30;;;7.50;99.90;;;;;;5028017;28;20080;-76
2022/04/05 09:49:38;;;;;;;4.10;2.30;;;7.50;99.90;;;;;;5027382;28;20049;-76
2022/04/05 09:52:25;;;;;;;4.40;2.53;;;7.50;99.90;;;;;;5044019;28;20163;-76
2022/04/05 09:54:51;;;;;;;2.53;2.30;;;7.50;99.90;;;;;;5028780;28;20049;-74
2022/04/05 09:57:31;;;;;;;16.98;11.05;;;7.60;99.90;;;;;;5033223;28;20120;-76
2022/04/05 10:00:10;;;;;;;5.45;2.78;;;7.70;99.90;;;;;;5039544;28;20048;-75
2022/04/05 10:02:36;;;;;;;3.05;2.08;;;7.80;99.90;;;;;;5041277;28;20036;-76
2022/04/05 10:05:09;;;;;;;5.20;2.40;;;7.90;99.90;;;;;;5041525;28;20040;-76
2022/04/05 10:07:36;;;;;;;5.82;2.50;;;8.00;99.90;;;;;;5035123;28;20112;-76
2022/04/05 10:10:07;;;;;;;3.17;2.30;;;8.00;99.90;;;;;;5029471;28;20430;-76
2022/04/05 10:12:33;;;;;;;2.35;1.60;;;8.00;99.90;;;;;;5034338;28;20052;-76
2022/04/05 10:15:02;;;;;;;1.92;1.45;;;8.10;99.90;;;;;;5038091;28;20151;-76
2022/04/05 10:17:28;;;;;;;2.85;1.60;;;8.10;99.90;;;;;;5028850;28;20037;-76
2022/04/05 10:19:56;;;;;;;2.30;1.63;;;8.10;99.90;;;;;;5027266;28;20434;-76
2022/04/05 10:22:22;;;;;;;2.97;1.95;;;8.30;99.90;;;;;;5025465;28;20037;-76
2022/04/05 10:24:53;;;;;;;1.83;1.70;;;8.30;99.90;;;;;;5027040;28;20049;-76
2022/04/05 10:27:23;;;;;;;2.85;2.08;;;8.30;99.90;;;;;;4992841;28;20037;-76
2022/04/05 10:30:24;;;;;;;2.05;1.85;;;8.30;99.90;;;;;;5026732;28;20549;-76
2022/04/05 10:33:09;;;;;;;2.22;1.85;;;8.30;99.90;;;;;;5035200;28;20057;-76
2022/04/05 10:35:50;;;;;;;2.00;1.80;;;8.40;99.90;;;;;;5042798;28;20174;-76
2022/04/05 10:38:18;;;;;;;2.20;1.70;;;8.40;99.90;;;;;;5037438;28;20041;-76
2022/04/05 10:41:20;;;;;;;2.00;1.80;;;8.30;99.90;;;;;;5042463;28;20075;-76
2022/04/05 10:44:18;;;;;;;3.20;2.35;;;8.30;99.90;;;;;;5040159;28;20049;-76
2022/04/05 10:47:00;;;;;;;3.15;2.20;;;8.30;99.90;;;;;;5057460;28;20046;-76
2022/04/05 10:49:44;;;;;;;3.17;2.10;;;8.40;99.90;;;;;;5024895;28;20041;-76
2022/04/05 10:52:13;;;;;;;3.17;2.60;;;8.40;99.90;;;;;;5025630;28;20054;-76
2022/04/05 10:54:41;;;;;;;3.10;2.53;;;8.40;99.90;;;;;;5026709;28;20082;-76
2022/04/05 10:57:21;;;;;;;3.67;2.90;;;8.40;99.90;;;;;;5012323;28;20056;-76
2022/04/05 10:59:54;;;;;;;4.75;3.03;;;8.50;99.90;;;;;;5023629;28;20087;-76
2022/04/05 11:02:47;;;;;;;4.70;3.33;;;8.60;99.90;;;;;;5024730;28;20395;-76
2022/04/05 11:05:18;;;;;;;4.97;3.53;;;8.60;99.90;;;;;;5005708;28;20050;-76
2022/04/05 11:07:59;;;;;;;6.03;4.10;;;8.60;99.90;;;;;;5057540;28;20041;-75
2022/04/05 11:10:29;;;;;;;4.80;3.65;;;8.60;99.90;;;;;;5024926;28;20046;-76
2022/04/05 11:13:18;;;;;;;4.75;3.42;;;8.70;99.90;;;;;;5021306;28;20069;-76
2022/04/05 11:15:50;;;;;;;5.57;3.78;;;8.70;99.90;;;;;;5026004;28;20040;-76
2022/04/05 11:18:20;;;;;;;;;;;8.80;99.90;;;;;;5008114;28;20041;-75
2022/04/05 11:20:48;;;;;;;5.55;4.10;;;8.90;99.90;;;;;;5025963;28;20275;-76
2022/04/05 11:23:17;;;;;;;5.80;3.53;;;9.10;99.90;;;;;;5017535;28;20033;-75
2022/04/05 11:25:44;;;;;;;7.72;5.50;;;9.30;99.90;;;;;;5018440;28;20052;-76
2022/04/05 11:28:17;;;;;;;6.55;4.80;;;9.30;99.90;;;;;;5023359;28;20128;-75
2022/04/05 11:31:04;;;;;;;5.97;4.63;;;9.40;99.90;;;;;;5021629;28;20053;-76
2022/04/05 11:33:34;;;;;;;4.95;4.18;;;9.60;99.90;;;;;;5022690;28;20460;-75
2022/04/05 11:36:07;;;;;;;7.70;4.85;;;9.70;99.90;;;;;;5014000;28;20735;-75
2022/04/05 11:38:42;;;;;;;5.20;4.20;;;9.80;99.90;;;;;;5017276;28;20494;-75
2022/04/05 11:41:21;;;;;;;6.60;4.57;;;9.90;99.90;;;;;;5019165;28;20045;-75
2022/04/05 11:43:53;;;;;;;6.25;4.13;;;9.80;99.90;;;;;;5018068;28;20037;-75
2022/04/05 11:46:20;;;;;;;5.50;4.20;;;9.80;99.90;;;;;;5011107;28;20041;-76
2022/04/05 11:48:54;;;;;;;5.15;4.00;;;9.70;99.90;;;;;;5012087;28;20045;-76
2022/04/05 11:51:30;;;;;;;5.53;4.10;;;9.70;99.90;;;;;;5015499;28;20469;-75
2022/04/05 11:54:18;;;;;;;5.28;4.13;;;9.90;99.90;;;;;;5015887;28;20044;-75
2022/04/05 11:56:45;;;;;;;5.60;4.35;;;9.90;99.90;;;;;;5015615;28;20084;-75
2022/04/05 11:59:13;;;;;;;6.88;3.67;;;10.00;99.90;;;;;;5015816;28;20280;-75
2022/04/05 12:01:42;;;;;;;5.57;4.43;;;9.90;99.90;;;;;;5016144;28;20057;-75
2022/04/05 12:04:13;;;;;;;4.63;3.70;;;9.90;99.90;;;;;;5015794;28;20057;-75
2022/04/05 12:06:40;;;;;;;4.75;3.40;;;9.80;99.90;;;;;;5030482;28;20048;-75
2022/04/05 12:09:12;;;;;;;4.45;3.20;;;9.70;99.90;;;;;;5031266;28;20037;-75
2022/04/05 12:11:43;;;;;;;4.18;3.05;;;9.70;99.90;;;;;;5030775;28;20095;-75
2022/04/05 12:14:14;;;;;;;3.97;3.25;;;9.70;99.90;;;;;;5019800;28;20210;-75
2022/04/05 12:16:54;;;;;;;3.53;2.95;;;9.60;99.90;;;;;;5017495;28;20036;-75
2022/04/05 12:19:34;;;;;;;5.10;4.00;;;9.60;99.90;;;;;;4998152;28;20041;-75
2022/04/05 12:22:07;;;;;;;5.32;3.70;;;9.50;99.90;;;;;;5020261;28;20035;-75
2022/04/05 12:24:35;;;;;;;4.63;3.50;;;9.50;99.90;;;;;;5029935;28;20045;-75
2022/04/05 12:27:03;;;;;;;5.68;3.25;;;9.60;99.90;;;;;;5027458;28;20104;-75
2022/04/05 12:29:31;;;;;;;5.18;4.03;;;9.70;99.90;;;;;;5028402;28;20426;-75
2022/04/05 12:32:11;;;;;;;4.97;3.80;;;9.80;99.90;;;;;;5015088;28;20046;-75
2022/04/05 12:34:37;;;;;;;7.03;3.95;;;9.90;99.90;;;;;;5011609;28;20234;-75
2022/04/05 12:37:05;;;;;;;6.20;4.13;;;9.90;99.90;;;;;;5025078;28;20038;-75
2022/04/05 12:39:32;;;;;;;6.95;4.25;;;9.80;99.90;;;;;;5024958;28;20041;-75
2022/04/05 12:42:01;;;;;;;6.95;4.65;;;9.90;99.90;;;;;;5028457;28;20496;-75
2022/04/05 12:44:30;;;;;;;6.68;4.32;;;9.90;99.90;;;;;;5028540;28;20084;-75
2022/04/05 12:46:58;;;;;;;5.82;4.38;;;9.90;99.90;;;;;;5013205;28;20038;-75
2022/04/05 12:49:28;;;;;;;10.60;4.97;;;10.00;99.90;;;;;;5016161;28;20037;-74
2022/04/05 12:52:08;;;;;;;5.90;4.03;;;9.90;99.90;;;;;;5019840;28;20061;-72
2022/04/05 12:54:36;;;;;;;7.68;5.20;;;9.90;99.90;;;;;;5026342;28;20080;-73
2022/04/05 12:57:14;;;;;;;8.48;5.30;;;9.90;99.90;;;;;;5018851;28;20076;-72
2022/04/05 12:59:40;;;;;;;11.98;5.45;;;9.80;99.90;;;;;;5016604;28;20152;-72
2022/04/05 13:02:05;;;;;;;8.00;4.95;;;9.80;99.90;;;;;;5017720;28;20141;-72